Time;durP1;ratioP1;P1;durP2;ratioP2;P2;SDS_P1;SDS_P2;PMS_P1;PMS_P2;Temp;Humidity;BMP_temperature;BMP_pressure;BME280_temperature;BME280_humidity;BME280_pressure;Samples;Min_cycle;Max_cycle;Signal;HPM_P1;HPM_P2
2024/02/17 00:00:27;;;;;;;3.17;2.87;;;10.40;99.90;;;;;;493960;241;27715;-73
2024/02/17 00:02:29;;;;;;;3.40;2.90;;;10.40;99.90;;;;;;494004;241;28053;-73
2024/02/17 00:04:30;;;;;;;3.47;3.03;;;10.40;99.90;;;;;;494010;241;28037;-72
2024/02/17 00:06:31;;;;;;;3.70;3.17;;;10.40;99.90;;;;;;493958;241;27962;-73
2024/02/17 00:08:32;;;;;;;3.40;3.10;;;10.30;99.90;;;;;;494013;241;28457;-75
2024/02/17 00:10:34;;;;;;;4.13;3.53;;;10.40;99.90;;;;;;494013;241;28402;-73
2024/02/17 00:12:36;;;;;;;3.70;3.40;;;10.40;99.90;;;;;;493975;241;28468;-72
2024/02/17 00:14:36;;;;;;;3.93;3.53;;;10.40;99.90;;;;;;493915;241;27912;-72
2024/02/17 00:16:37;;;;;;;3.23;2.97;;;10.30;99.90;;;;;;493913;238;28005;-73
2024/02/17 00:18:39;;;;;;;3.50;3.20;;;10.30;99.90;;;;;;494003;241;27999;-74
2024/02/17 00:20:40;;;;;;;3.77;3.47;;;10.30;99.90;;;;;;493857;241;27932;-72
2024/02/17 00:22:41;;;;;;;3.57;3.27;;;10.30;99.90;;;;;;493932;241;28206;-72
2024/02/17 00:24:43;;;;;;;3.47;3.20;;;10.30;99.90;;;;;;493963;241;28116;-72
2024/02/17 00:26:44;;;;;;;5.00;3.77;;;10.20;99.90;;;;;;493950;241;28166;-73
2024/02/17 00:28:45;;;;;;;5.00;3.70;;;10.20;99.90;;;;;;493970;241;27871;-73
2024/02/17 00:30:47;;;;;;;4.07;3.70;;;10.20;99.90;;;;;;493939;241;28030;-72
2024/02/17 00:32:47;;;;;;;3.80;3.50;;;10.20;99.90;;;;;;493887;241;28384;-73
2024/02/17 00:34:49;;;;;;;4.30;3.70;;;10.30;99.90;;;;;;493995;241;28767;-73
2024/02/17 00:36:50;;;;;;;4.77;3.80;;;10.20;99.90;;;;;;493959;241;28404;-73
2024/02/17 00:38:51;;;;;;;4.60;3.57;;;10.20;99.90;;;;;;493968;241;28593;-73
2024/02/17 00:40:52;;;;;;;4.43;3.90;;;10.20;99.90;;;;;;493935;241;27941;-72
2024/02/17 00:42:54;;;;;;;4.50;4.10;;;10.20;99.90;;;;;;493810;241;28065;-73
2024/02/17 00:44:55;;;;;;;3.33;3.07;;;10.30;99.90;;;;;;494017;241;28019;-74
2024/02/17 00:46:56;;;;;;;3.53;3.23;;;10.30;99.90;;;;;;493959;241;28088;-73
2024/02/17 00:48:58;;;;;;;3.97;3.57;;;10.30;99.90;;;;;;493881;241;28023;-73
2024/02/17 00:50:59;;;;;;;4.13;3.73;;;10.20;99.90;;;;;;493983;241;27910;-72
2024/02/17 00:53:00;;;;;;;4.77;3.90;;;10.20;99.90;;;;;;494000;241;27859;-73
2024/02/17 00:55:01;;;;;;;3.93;3.53;;;10.20;99.90;;;;;;494020;241;28088;-74
2024/02/17 00:57:03;;;;;;;3.70;3.40;;;10.30;99.90;;;;;;493957;241;28376;-72
2024/02/17 00:59:04;;;;;;;3.93;3.53;;;10.30;99.90;;;;;;493982;241;28386;-73
2024/02/17 01:01:05;;;;;;;5.07;4.00;;;10.30;99.90;;;;;;493988;241;29414;-73
2024/02/17 01:03:06;;;;;;;4.30;3.90;;;10.20;99.90;;;;;;494006;241;27948;-73
2024/02/17 01:05:08;;;;;;;4.37;4.00;;;10.20;99.90;;;;;;494010;241;28103;-73
2024/02/17 01:07:09;;;;;;;4.40;4.00;;;10.20;99.90;;;;;;493921;241;27584;-73
2024/02/17 01:09:10;;;;;;;7.43;4.23;;;10.10;99.90;;;;;;493945;237;27962;-73
2024/02/17 01:11:11;;;;;;;5.20;4.70;;;10.00;99.90;;;;;;493990;237;28379;-74
2024/02/17 01:13:13;;;;;;;5.30;3.93;;;10.00;99.90;;;;;;493990;241;27945;-72
2024/02/17 01:15:14;;;;;;;6.00;4.80;;;10.00;99.90;;;;;;493961;241;28037;-73
2024/02/17 01:17:15;;;;;;;3.93;3.63;;;10.00;99.90;;;;;;493909;241;28101;-72
2024/02/17 01:19:16;;;;;;;5.07;4.27;;;10.00;99.90;;;;;;493911;241;27906;-73
2024/02/17 01:21:18;;;;;;;6.13;4.67;;;10.00;99.90;;;;;;493972;241;28440;-74
2024/02/17 01:23:19;;;;;;;6.13;4.80;;;10.00;99.90;;;;;;493953;241;28394;-72
2024/02/17 01:25:24;;;;;;;4.47;3.83;;;10.00;99.90;;;;;;493926;241;28475;-72
2024/02/17 01:27:21;;;;;;;6.77;4.30;;;10.00;99.90;;;;;;493605;241;28163;-72
2024/02/17 01:29:23;;;;;;;5.40;4.47;;;10.00;99.90;;;;;;493967;241;27955;-72
2024/02/17 01:31:24;;;;;;;5.33;4.67;;;10.00;99.90;;;;;;493955;241;28116;-73
2024/02/17 01:33:25;;;;;;;4.27;3.87;;;9.90;99.90;;;;;;493929;241;28010;-73
2024/02/17 01:35:26;;;;;;;5.90;4.80;;;9.90;99.90;;;;;;493896;241;28067;-73
2024/02/17 01:37:28;;;;;;;5.70;4.93;;;9.80;99.90;;;;;;493944;241;27878;-75
2024/02/17 01:39:29;;;;;;;5.07;4.10;;;9.80;99.90;;;;;;493963;241;27735;-73
2024/02/17 01:41:30;;;;;;;4.33;3.93;;;9.80;99.90;;;;;;493958;241;28089;-73
2024/02/17 01:43:32;;;;;;;5.30;4.30;;;9.70;99.90;;;;;;493931;241;27953;-72
2024/02/17 01:45:33;;;;;;;5.77;4.63;;;9.70;99.90;;;;;;493931;241;27975;-73
2024/02/17 01:47:34;;;;;;;5.17;4.50;;;9.60;99.90;;;;;;493950;241;27984;-74
2024/02/17 01:49:35;;;;;;;5.40;3.67;;;9.50;99.90;;;;;;493990;241;27878;-72
2024/02/17 01:51:36;;;;;;;5.53;3.90;;;9.50;99.90;;;;;;493965;241;28682;-73
2024/02/17 01:53:38;;;;;;;7.17;4.80;;;9.40;99.90;;;;;;493913;241;28398;-73
2024/02/17 01:55:39;;;;;;;17.70;4.77;;;9.40;99.90;;;;;;493938;241;28196;-73
2024/02/17 01:57:40;;;;;;;20.00;4.23;;;9.40;99.90;;;;;;493952;241;28563;-74
2024/02/17 01:59:41;;;;;;;20.93;3.80;;;9.30;99.90;;;;;;493973;241;27967;-73
2024/02/17 02:01:43;;;;;;;11.63;3.27;;;9.20;99.90;;;;;;493955;241;28026;-73
2024/02/17 02:03:44;;;;;;;13.17;3.17;;;9.20;99.90;;;;;;493891;241;27924;-72
2024/02/17 02:05:45;;;;;;;6.17;2.73;;;9.20;99.90;;;;;;493975;241;28107;-72
2024/02/17 02:07:46;;;;;;;4.07;2.90;;;9.10;99.90;;;;;;493907;241;28058;-73
2024/02/17 02:09:48;;;;;;;5.60;4.33;;;9.10;99.90;;;;;;493839;241;27944;-72
2024/02/17 02:11:49;;;;;;;4.80;4.07;;;9.10;99.90;;;;;;493935;241;28113;-72
2024/02/17 02:13:50;;;;;;;7.43;4.87;;;9.10;99.90;;;;;;493940;241;28691;-72
2024/02/17 02:15:51;;;;;;;4.77;4.03;;;9.00;99.90;;;;;;493985;241;28447;-73
2024/02/17 02:17:53;;;;;;;5.60;4.10;;;9.00;99.90;;;;;;493927;241;28467;-74
2024/02/17 02:19:54;;;;;;;5.37;3.93;;;9.00;99.90;;;;;;493743;241;28265;-73
2024/02/17 02:21:55;;;;;;;6.17;5.13;;;8.90;99.90;;;;;;493918;241;27737;-72
2024/02/17 02:23:56;;;;;;;5.97;5.10;;;8.90;99.90;;;;;;493969;241;27997;-74
2024/02/17 02:25:58;;;;;;;6.80;5.40;;;8.90;99.90;;;;;;493996;241;27920;-72
2024/02/17 02:27:59;;;;;;;7.70;6.17;;;8.90;99.90;;;;;;493911;241;27979;-73
2024/02/17 02:30:00;;;;;;;5.93;4.97;;;8.80;99.90;;;;;;493930;241;28053;-73
2024/02/17 02:32:01;;;;;;;8.20;5.30;;;8.80;99.90;;;;;;493920;241;27966;-73
2024/02/17 02:34:03;;;;;;;6.23;5.07;;;8.80;99.90;;;;;;493989;241;28135;-74
2024/02/17 02:36:04;;;;;;;5.70;4.77;;;8.80;99.90;;;;;;493942;241;27934;-72
2024/02/17 02:38:05;;;;;;;6.77;5.13;;;8.80;99.90;;;;;;493876;241;28271;-73
2024/02/17 02:40:06;;;;;;;6.73;4.50;;;8.70;99.90;;;;;;493899;241;28042;-72
2024/02/17 02:42:08;;;;;;;6.83;5.10;;;8.70;99.90;;;;;;493969;241;27831;-73
2024/02/17 02:44:09;;;;;;;7.07;5.10;;;8.60;99.90;;;;;;493853;241;27951;-72
2024/02/17 02:46:10;;;;;;;5.20;4.37;;;8.60;99.90;;;;;;493904;241;27696;-73
2024/02/17 02:48:11;;;;;;;5.47;4.67;;;8.60;99.90;;;;;;493930;241;28058;-73
2024/02/17 02:50:13;;;;;;;5.10;4.60;;;8.50;99.90;;;;;;493968;241;28613;-74
2024/02/17 02:52:14;;;;;;;4.70;3.83;;;8.40;99.90;;;;;;493961;239;28384;-73
2024/02/17 02:54:17;;;;;;;5.93;4.50;;;8.40;99.90;;;;;;493940;241;28668;-73
2024/02/17 02:56:16;;;;;;;5.00;4.50;;;8.40;99.90;;;;;;493799;241;28426;-72
2024/02/17 02:58:18;;;;;;;6.30;4.50;;;8.40;99.90;;;;;;493974;237;28550;-72
2024/02/17 03:00:19;;;;;;;4.90;4.40;;;8.40;99.90;;;;;;494018;241;28505;-74
2024/02/17 03:02:20;;;;;;;5.53;4.80;;;8.30;99.90;;;;;;494019;241;27913;-72
2024/02/17 03:04:21;;;;;;;5.97;4.27;;;8.30;99.90;;;;;;494019;241;28061;-72
2024/02/17 03:06:23;;;;;;;6.00;4.70;;;8.20;99.90;;;;;;493969;241;27585;-72
2024/02/17 03:08:24;;;;;;;5.07;4.43;;;8.20;99.90;;;;;;493989;241;28063;-72
2024/02/17 03:10:25;;;;;;;4.80;4.20;;;8.20;99.90;;;;;;494043;241;28131;-74
2024/02/17 03:12:26;;;;;;;6.00;5.00;;;8.10;99.90;;;;;;493978;241;27988;-72
2024/02/17 03:14:28;;;;;;;5.27;4.57;;;8.10;99.90;;;;;;493972;241;28001;-73
2024/02/17 03:16:29;;;;;;;5.33;4.50;;;8.10;99.90;;;;;;493931;241;27942;-72
2024/02/17 03:18:30;;;;;;;5.23;4.60;;;8.00;99.90;;;;;;494016;241;28026;-72
2024/02/17 03:20:31;;;;;;;5.13;4.20;;;8.00;99.90;;;;;;494010;241;27596;-73
2024/02/17 03:22:33;;;;;;;6.53;4.87;;;8.00;99.90;;;;;;493984;241;27957;-72
2024/02/17 03:24:34;;;;;;;5.20;3.80;;;7.90;99.90;;;;;;493973;241;28013;-72
2024/02/17 03:26:36;;;;;;;5.27;4.50;;;7.90;99.90;;;;;;493994;241;28003;-72
2024/02/17 03:28:36;;;;;;;4.10;3.50;;;7.80;99.90;;;;;;493999;241;28551;-73
2024/02/17 03:30:38;;;;;;;5.97;4.80;;;7.80;99.90;;;;;;493985;241;28565;-73
2024/02/17 03:32:39;;;;;;;14.50;3.77;;;7.70;99.90;;;;;;493854;241;28501;-73
2024/02/17 03:34:40;;;;;;;15.73;3.87;;;7.60;99.90;;;;;;493902;241;28492;-72
2024/02/17 03:36:41;;;;;;;36.10;4.47;;;7.60;99.90;;;;;;493973;241;28038;-74
2024/02/17 03:38:43;;;;;;;5.53;2.70;;;7.50;99.90;;;;;;493959;241;27956;-72
2024/02/17 03:40:44;;;;;;;3.53;2.33;;;7.50;99.90;;;;;;493976;241;28022;-72
2024/02/17 03:42:45;;;;;;;2.30;2.10;;;7.40;99.90;;;;;;493943;241;27987;-72
2024/02/17 03:44:46;;;;;;;2.63;2.43;;;7.40;99.90;;;;;;493992;241;28191;-72
2024/02/17 03:46:48;;;;;;;5.70;3.40;;;7.40;99.90;;;;;;494011;241;28005;-74
2024/02/17 03:48:49;;;;;;;4.50;3.03;;;7.40;99.90;;;;;;494021;241;27919;-72
2024/02/17 03:50:50;;;;;;;3.03;2.70;;;7.30;99.90;;;;;;493991;237;27827;-73
2024/02/17 03:52:51;;;;;;;3.97;3.20;;;7.30;99.90;;;;;;493965;241;27561;-73
2024/02/17 03:54:53;;;;;;;17.13;3.20;;;7.30;99.90;;;;;;494000;241;27945;-73
2024/02/17 03:56:54;;;;;;;9.63;3.00;;;7.30;99.90;;;;;;494015;238;27966;-74
2024/02/17 03:58:55;;;;;;;12.17;3.83;;;7.30;99.90;;;;;;494023;241;28007;-73
2024/02/17 04:00:56;;;;;;;15.60;4.00;;;7.30;99.90;;;;;;494001;241;28487;-73
2024/02/17 04:02:58;;;;;;;3.27;2.93;;;7.40;99.90;;;;;;493976;241;28943;-73
2024/02/17 04:04:59;;;;;;;4.73;3.23;;;7.40;99.90;;;;;;494041;241;28524;-73
2024/02/17 04:07:00;;;;;;;8.03;4.83;;;7.40;99.90;;;;;;494006;241;28591;-73
2024/02/17 04:09:02;;;;;;;3.70;2.90;;;7.30;99.90;;;;;;493988;241;28316;-73
2024/02/17 04:11:03;;;;;;;3.43;3.13;;;7.20;99.90;;;;;;493953;241;27981;-73
2024/02/17 04:13:04;;;;;;;11.37;4.10;;;7.10;99.90;;;;;;494027;241;27865;-76
2024/02/17 04:15:05;;;;;;;4.40;2.90;;;7.10;99.90;;;;;;494037;241;28071;-73
2024/02/17 04:17:06;;;;;;;3.50;2.60;;;7.10;99.90;;;;;;493942;241;27865;-73
2024/02/17 04:19:08;;;;;;;3.70;2.67;;;7.00;99.90;;;;;;493952;241;28052;-73
2024/02/17 04:21:09;;;;;;;5.10;3.20;;;7.00;99.90;;;;;;493942;241;27572;-73
2024/02/17 04:23:10;;;;;;;3.83;2.30;;;7.00;99.90;;;;;;493990;241;28004;-74
2024/02/17 04:25:12;;;;;;;3.20;2.90;;;7.00;99.90;;;;;;493963;241;27937;-73
2024/02/17 04:27:13;;;;;;;2.90;2.60;;;7.00;99.90;;;;;;493934;241;27972;-70
2024/02/17 04:29:16;;;;;;;2.33;2.13;;;6.90;99.90;;;;;;493947;241;27947;-73
2024/02/17 04:31:15;;;;;;;5.70;2.60;;;6.90;99.90;;;;;;493768;241;27965;-70
2024/02/17 04:33:16;;;;;;;2.50;2.30;;;6.80;99.90;;;;;;493981;241;27982;-75
2024/02/17 04:35:18;;;;;;;2.33;2.13;;;6.70;99.90;;;;;;493991;241;27988;-72
2024/02/17 04:37:19;;;;;;;5.27;2.67;;;6.60;99.90;;;;;;493911;241;28534;-71
2024/02/17 04:39:20;;;;;;;4.73;2.80;;;6.60;99.90;;;;;;493971;241;29134;-71
2024/02/17 04:41:21;;;;;;;14.40;3.10;;;6.60;99.90;;;;;;494023;241;28357;-70
2024/02/17 04:43:23;;;;;;;9.50;3.47;;;6.60;99.90;;;;;;494020;241;28449;-73
2024/02/17 04:45:24;;;;;;;2.90;2.60;;;6.60;99.90;;;;;;493900;241;28496;-73
2024/02/17 04:47:25;;;;;;;5.60;2.60;;;6.60;99.90;;;;;;493980;241;27953;-73
2024/02/17 04:49:27;;;;;;;8.90;2.80;;;6.60;99.90;;;;;;494000;241;28083;-71
2024/02/17 04:51:28;;;;;;;11.85;2.60;;;6.50;99.90;;;;;;493971;241;27829;-72
2024/02/17 04:53:29;;;;;;;3.97;2.47;;;6.40;99.90;;;;;;493951;241;27548;-71
2024/02/17 04:55:30;;;;;;;2.40;2.20;;;6.40;99.90;;;;;;493996;241;27470;-71
2024/02/17 04:57:31;;;;;;;3.00;1.93;;;6.30;99.90;;;;;;493980;241;28680;-73
2024/02/17 04:59:33;;;;;;;3.30;2.80;;;6.30;99.90;;;;;;494032;241;28439;-73
2024/02/17 05:01:34;;;;;;;2.53;2.33;;;6.30;99.90;;;;;;493992;241;28249;-73
2024/02/17 05:03:35;;;;;;;2.83;2.53;;;6.20;99.90;;;;;;493958;241;27772;-72
2024/02/17 05:05:36;;;;;;;2.50;2.30;;;6.20;99.90;;;;;;493929;241;29200;-73
2024/02/17 05:07:38;;;;;;;3.57;2.67;;;6.20;99.90;;;;;;493956;241;28811;-73
2024/02/17 05:09:39;;;;;;;3.40;2.30;;;6.10;99.90;;;;;;494014;237;27782;-72
2024/02/17 05:11:43;;;;;;;3.70;2.80;;;6.10;99.90;;;;;;493978;241;28035;-70
2024/02/17 05:13:44;;;;;;;5.13;2.30;;;6.10;99.90;;;;;;493945;241;27992;-70
2024/02/17 05:15:46;;;;;;;2.03;1.83;;;6.00;99.90;;;;;;493942;241;28012;-70
2024/02/17 05:17:47;;;;;;;2.20;1.80;;;5.90;99.90;;;;;;494008;241;27639;-72
2024/02/17 05:19:48;;;;;;;3.53;1.90;;;5.90;99.90;;;;;;493978;241;29432;-70
2024/02/17 05:21:49;;;;;;;2.07;1.80;;;5.90;99.90;;;;;;493995;241;28421;-71
2024/02/17 05:23:51;;;;;;;2.40;2.20;;;5.90;99.90;;;;;;493989;241;29270;-72
2024/02/17 05:25:54;;;;;;;6.87;2.22;;;5.80;99.90;;;;;;494030;241;27935;-70
2024/02/17 05:27:53;;;;;;;3.30;2.00;;;5.80;99.90;;;;;;493816;241;27630;-71
2024/02/17 05:29:54;;;;;;;6.40;1.85;;;5.80;99.90;;;;;;493983;241;27454;-72
2024/02/17 05:31:56;;;;;;;33.93;2.90;;;5.70;99.90;;;;;;493963;237;27599;-72
2024/02/17 05:33:57;;;;;;;21.17;2.80;;;5.80;99.90;;;;;;493995;241;28849;-75
2024/02/17 05:35:58;;;;;;;5.57;1.90;;;5.70;99.90;;;;;;494028;241;28802;-72
2024/02/17 05:37:59;;;;;;;23.23;2.30;;;5.70;99.90;;;;;;493919;241;27970;-72
2024/02/17 05:40:01;;;;;;;27.55;2.70;;;5.60;99.90;;;;;;493948;241;27484;-72
2024/02/17 05:42:02;;;;;;;4.72;1.80;;;5.60;99.90;;;;;;493908;237;27509;-72
2024/02/17 05:44:04;;;;;;;53.38;2.97;;;5.50;99.90;;;;;;493856;241;27603;-74
2024/02/17 05:46:04;;;;;;;13.23;2.35;;;5.50;99.90;;;;;;493982;241;28018;-72
2024/02/17 05:48:06;;;;;;;5.85;2.00;;;5.50;99.90;;;;;;493925;237;27617;-72
2024/02/17 05:50:07;;;;;;;1.77;1.67;;;5.50;99.90;;;;;;493947;237;27634;-72
2024/02/17 05:52:08;;;;;;;2.05;1.87;;;5.40;99.90;;;;;;494002;241;27472;-73
2024/02/17 05:54:09;;;;;;;3.17;1.75;;;5.30;99.90;;;;;;493958;241;27513;-73
2024/02/17 05:56:11;;;;;;;1.80;1.70;;;5.30;99.90;;;;;;493911;241;27539;-72
2024/02/17 05:58:12;;;;;;;1.95;1.85;;;5.30;99.90;;;;;;493912;241;27970;-70
2024/02/17 06:00:13;;;;;;;2.12;1.92;;;5.30;99.90;;;;;;493991;241;28102;-74
2024/02/17 06:02:15;;;;;;;9.40;1.80;;;5.20;99.90;;;;;;493985;241;27453;-73
2024/02/17 06:04:16;;;;;;;1.90;1.80;;;5.30;99.90;;;;;;493995;241;27609;-71
2024/02/17 06:06:17;;;;;;;2.00;1.90;;;5.20;99.90;;;;;;493909;241;27612;-72
2024/02/17 06:08:19;;;;;;;1.30;1.30;;;5.30;99.90;;;;;;493973;241;27514;-70
2024/02/17 06:10:20;;;;;;;6.32;2.08;;;5.20;99.90;;;;;;493987;241;27977;-73
2024/02/17 06:12:21;;;;;;;4.25;1.80;;;5.20;99.90;;;;;;493980;241;28006;-72
2024/02/17 06:14:22;;;;;;;1.67;1.58;;;5.20;99.90;;;;;;493935;241;27601;-70
2024/02/17 06:16:23;;;;;;;1.70;1.50;;;5.20;99.90;;;;;;493968;241;27532;-70
2024/02/17 06:23:03;;;;;;;2.60;1.75;;;5.00;99.90;;;;;;493901;241;28839;-70
2024/02/17 06:25:05;;;;;;;5.65;1.85;;;4.90;99.90;;;;;;493974;241;28017;-71
2024/02/17 06:27:06;;;;;;;2.17;1.83;;;4.90;99.90;;;;;;493933;241;27536;-70
2024/02/17 06:29:07;;;;;;;1.70;1.60;;;4.90;99.90;;;;;;493867;241;27587;-70
2024/02/17 06:31:08;;;;;;;2.12;1.92;;;4.90;99.90;;;;;;493897;241;27514;-70
2024/02/17 06:33:10;;;;;;;1.73;1.62;;;4.90;99.90;;;;;;493947;241;27989;-71
2024/02/17 06:35:11;;;;;;;1.65;1.55;;;4.90;99.90;;;;;;493955;241;27581;-70
2024/02/17 06:37:12;;;;;;;2.35;2.15;;;4.90;99.90;;;;;;493915;241;27496;-71
2024/02/17 06:39:14;;;;;;;7.87;2.55;;;4.90;99.90;;;;;;493924;241;28018;-70
2024/02/17 06:41:15;;;;;;;9.30;1.95;;;4.90;99.90;;;;;;493901;241;27959;-73
2024/02/17 06:43:17;;;;;;;2.25;2.05;;;4.90;99.90;;;;;;493947;241;27627;-71
2024/02/17 06:45:17;;;;;;;2.20;2.00;;;4.90;99.90;;;;;;493837;237;27585;-70
2024/02/17 06:47:19;;;;;;;2.17;1.98;;;4.90;99.90;;;;;;493844;241;27617;-73
2024/02/17 06:49:20;;;;;;;7.22;2.40;;;4.90;99.90;;;;;;493792;241;27466;-72
2024/02/17 06:51:22;;;;;;;2.95;1.85;;;4.90;99.90;;;;;;493972;241;28004;-70
2024/02/17 06:53:22;;;;;;;2.95;2.37;;;4.90;99.90;;;;;;493857;241;28057;-70
2024/02/17 06:55:23;;;;;;;8.25;2.80;;;4.80;99.90;;;;;;493915;241;27488;-70
2024/02/17 06:57:25;;;;;;;8.95;2.58;;;4.90;99.90;;;;;;493874;241;27493;-71
2024/02/17 06:59:26;;;;;;;5.90;2.35;;;4.90;99.90;;;;;;493954;241;27940;-70
2024/02/17 07:01:27;;;;;;;3.58;2.70;;;4.90;99.90;;;;;;493941;241;27616;-70
2024/02/17 07:03:29;;;;;;;4.30;2.95;;;4.80;99.90;;;;;;493907;241;27544;-71
2024/02/17 07:05:31;;;;;;;3.03;2.45;;;4.80;99.90;;;;;;493943;241;27501;-70
2024/02/17 07:07:31;;;;;;;3.22;2.92;;;4.90;99.90;;;;;;493824;241;27988;-70
2024/02/17 07:09:32;;;;;;;5.05;2.65;;;4.80;99.90;;;;;;493927;241;28011;-71
2024/02/17 07:11:34;;;;;;;3.10;2.80;;;4.90;99.90;;;;;;493944;241;27648;-70
2024/02/17 07:13:35;;;;;;;5.03;3.15;;;4.90;99.90;;;;;;493936;241;27602;-73
2024/02/17 07:15:36;;;;;;;3.80;3.42;;;4.90;99.90;;;;;;493914;241;27572;-73
2024/02/17 07:17:37;;;;;;;3.08;2.78;;;4.90;99.90;;;;;;493919;241;27548;-73
2024/02/17 07:19:39;;;;;;;3.58;2.92;;;4.90;99.90;;;;;;493968;241;27525;-70
2024/02/17 07:21:40;;;;;;;4.35;3.58;;;5.00;99.90;;;;;;493962;241;27486;-70
2024/02/17 07:23:41;;;;;;;5.62;3.67;;;5.10;99.90;;;;;;493905;241;28060;-70
2024/02/17 07:25:44;;;;;;;3.65;3.10;;;5.10;99.90;;;;;;493964;241;28068;-73
2024/02/17 07:27:48;;;;;;;4.00;3.28;;;5.10;99.90;;;;;;493822;241;27480;-70
2024/02/17 07:29:45;;;;;;;7.35;3.97;;;5.10;99.90;;;;;;493620;239;27533;-74
2024/02/17 07:31:46;;;;;;;4.85;3.90;;;5.10;99.90;;;;;;493933;241;27560;-71
2024/02/17 07:33:49;;;;;;;4.85;4.05;;;5.10;99.90;;;;;;493874;241;27629;-71
2024/02/17 07:35:49;;;;;;;4.80;3.70;;;5.10;99.90;;;;;;493899;241;27843;-74
2024/02/17 07:37:50;;;;;;;5.45;4.43;;;5.10;99.90;;;;;;493895;241;27931;-71
2024/02/17 07:39:51;;;;;;;19.17;4.37;;;5.10;99.90;;;;;;493791;241;28110;-73
2024/02/17 07:41:52;;;;;;;4.18;3.50;;;5.00;99.90;;;;;;493889;241;27482;-70
2024/02/17 07:43:54;;;;;;;5.43;3.67;;;5.10;99.90;;;;;;493945;241;27470;-73
2024/02/17 07:45:55;;;;;;;5.75;3.97;;;5.20;99.90;;;;;;494003;241;27518;-72
2024/02/17 07:47:56;;;;;;;3.53;3.22;;;5.20;99.90;;;;;;493923;241;27544;-73
2024/02/17 07:49:58;;;;;;;4.18;3.60;;;5.30;99.90;;;;;;493985;241;27674;-70
2024/02/17 07:51:59;;;;;;;3.92;3.50;;;5.40;99.90;;;;;;493979;241;28759;-70
2024/02/17 07:54:00;;;;;;;4.78;4.20;;;5.60;99.90;;;;;;493993;241;27938;-71
2024/02/17 07:56:01;;;;;;;5.05;4.55;;;5.80;99.90;;;;;;493965;241;27511;-74
2024/02/17 07:58:06;;;;;;;6.95;4.30;;;5.90;99.90;;;;;;493908;241;27550;-73
2024/02/17 08:00:04;;;;;;;5.28;4.37;;;6.00;99.90;;;;;;493753;241;27509;-71
2024/02/17 08:02:05;;;;;;;6.68;4.68;;;6.10;99.90;;;;;;493994;241;27873;-73
2024/02/17 08:04:06;;;;;;;7.47;5.30;;;6.10;99.90;;;;;;493996;241;27479;-71
2024/02/17 08:06:08;;;;;;;14.03;5.80;;;6.30;99.90;;;;;;493976;241;28100;-71
2024/02/17 08:08:09;;;;;;;11.27;6.22;;;6.40;99.90;;;;;;493955;241;29994;-71
2024/02/17 08:10:13;;;;;;;8.43;6.00;;;6.40;99.90;;;;;;493984;241;27471;-73
2024/02/17 08:12:12;;;;;;;12.73;6.78;;;6.50;99.90;;;;;;493817;241;27505;-71
2024/02/17 08:14:15;;;;;;;15.30;8.25;;;6.60;99.90;;;;;;493972;241;27463;-73
2024/02/17 08:16:14;;;;;;;21.37;8.97;;;6.70;99.90;;;;;;493727;241;27506;-73
2024/02/17 08:18:15;;;;;;;25.03;8.60;;;6.70;99.90;;;;;;493986;241;27758;-75
2024/02/17 08:20:17;;;;;;;11.10;7.43;;;6.80;99.90;;;;;;493990;237;27946;-73
2024/02/17 08:22:18;;;;;;;12.67;7.03;;;6.90;99.90;;;;;;493955;241;28181;-74
2024/02/17 08:24:19;;;;;;;38.70;8.10;;;7.00;99.90;;;;;;493924;241;27927;-72
2024/02/17 08:26:21;;;;;;;7.50;5.90;;;6.80;99.90;;;;;;493933;241;28167;-73
2024/02/17 08:28:21;;;;;;;8.30;6.50;;;6.90;99.90;;;;;;493928;241;28471;-75
2024/02/17 08:30:23;;;;;;;8.13;6.70;;;6.90;99.90;;;;;;493994;237;28807;-73
2024/02/17 08:32:24;;;;;;;9.33;6.53;;;7.00;99.90;;;;;;493978;237;28174;-73
2024/02/17 08:34:25;;;;;;;8.50;6.60;;;7.10;99.90;;;;;;493963;241;28031;-73
2024/02/17 08:36:26;;;;;;;9.67;6.90;;;7.30;99.90;;;;;;493988;241;28402;-73
2024/02/17 08:38:28;;;;;;;10.23;7.17;;;7.30;99.90;;;;;;494006;241;28021;-74
2024/02/17 08:40:29;;;;;;;9.83;6.80;;;7.40;99.90;;;;;;493990;241;27806;-73
2024/02/17 08:42:30;;;;;;;10.53;7.63;;;7.40;99.90;;;;;;493961;241;27991;-73
2024/02/17 08:44:31;;;;;;;9.20;7.40;;;7.40;99.90;;;;;;493941;241;27684;-73
2024/02/17 08:46:33;;;;;;;8.40;6.93;;;7.40;99.90;;;;;;493998;241;28380;-73
2024/02/17 08:48:34;;;;;;;8.33;6.53;;;7.40;99.90;;;;;;493985;241;28452;-73
2024/02/17 08:50:35;;;;;;;9.57;7.30;;;7.60;99.90;;;;;;493983;241;28476;-72
2024/02/17 08:52:36;;;;;;;14.23;9.40;;;7.70;99.90;;;;;;493985;241;28559;-73
2024/02/17 08:54:38;;;;;;;9.50;7.37;;;7.90;99.90;;;;;;494041;241;28554;-76
2024/02/17 08:56:39;;;;;;;13.10;7.53;;;8.00;99.90;;;;;;493946;240;27814;-73
2024/02/17 08:58:40;;;;;;;13.53;8.03;;;8.10;99.90;;;;;;493841;241;28076;-73
2024/02/17 09:00:42;;;;;;;13.50;8.10;;;8.30;99.90;;;;;;493906;241;27940;-73
2024/02/17 09:02:44;;;;;;;16.20;9.80;;;8.30;99.90;;;;;;493936;241;27886;-73
2024/02/17 09:04:44;;;;;;;11.57;8.30;;;8.20;99.90;;;;;;493851;241;27989;-75
2024/02/17 09:06:45;;;;;;;13.43;8.83;;;8.10;99.90;;;;;;493945;241;27948;-73
2024/02/17 09:08:46;;;;;;;12.10;8.53;;;8.00;99.90;;;;;;493951;241;28098;-73
2024/02/17 09:10:48;;;;;;;11.33;8.47;;;7.90;99.90;;;;;;493936;241;27865;-73
2024/02/17 09:12:49;;;;;;;15.00;9.60;;;7.80;99.90;;;;;;493980;241;28015;-73
2024/02/17 09:14:50;;;;;;;14.30;9.20;;;7.70;99.90;;;;;;493978;241;28567;-74
2024/02/17 09:16:51;;;;;;;13.40;9.73;;;7.70;99.90;;;;;;493927;241;28154;-72
2024/02/17 09:18:53;;;;;;;17.47;9.50;;;7.80;99.90;;;;;;493940;241;28625;-72
2024/02/17 09:20:54;;;;;;;13.53;10.23;;;7.90;99.90;;;;;;493959;237;27978;-73
2024/02/17 09:22:55;;;;;;;14.07;9.90;;;8.10;99.90;;;;;;493980;237;28029;-72
2024/02/17 09:24:57;;;;;;;13.77;9.07;;;8.10;99.90;;;;;;493959;241;28115;-73
2024/02/17 09:27:00;;;;;;;13.17;8.70;;;8.30;99.90;;;;;;493885;241;28100;-72
2024/02/17 09:28:59;;;;;;;16.80;11.33;;;8.60;99.90;;;;;;493736;241;28051;-73
2024/02/17 09:31:00;;;;;;;12.63;9.67;;;8.80;99.90;;;;;;493971;241;28583;-74
2024/02/17 09:33:04;;;;;;;16.73;10.40;;;9.00;99.90;;;;;;493948;241;27925;-73
2024/02/17 09:35:06;;;;;;;13.13;10.07;;;9.10;99.90;;;;;;493984;241;27715;-74
2024/02/17 09:37:09;;;;;;;11.03;8.80;;;9.00;99.90;;;;;;493893;241;28098;-74
2024/02/17 09:39:08;;;;;;;16.97;11.27;;;9.20;99.90;;;;;;493817;237;27511;-74
2024/02/17 09:41:10;;;;;;;15.40;10.97;;;9.40;99.90;;;;;;493969;241;28488;-74
2024/02/17 09:43:11;;;;;;;14.00;10.13;;;9.60;99.90;;;;;;493931;241;28354;-75
2024/02/17 09:45:12;;;;;;;15.00;10.10;;;9.50;99.90;;;;;;493942;237;27932;-73
2024/02/17 09:47:13;;;;;;;12.37;8.60;;;9.40;99.90;;;;;;493909;237;28000;-74
2024/02/17 09:49:14;;;;;;;14.73;10.07;;;9.30;99.90;;;;;;493975;241;28093;-73
2024/02/17 09:51:17;;;;;;;12.30;9.20;;;9.30;99.90;;;;;;493996;241;28087;-72
2024/02/17 09:53:17;;;;;;;17.40;10.20;;;9.20;99.90;;;;;;493863;241;28008;-74
2024/02/17 09:55:18;;;;;;;14.40;10.23;;;9.10;99.90;;;;;;493953;241;28050;-74
2024/02/17 09:57:19;;;;;;;12.83;10.60;;;9.20;99.90;;;;;;493901;241;27861;-74
2024/02/17 09:59:21;;;;;;;13.67;9.73;;;9.10;99.90;;;;;;493977;241;28500;-75
2024/02/17 10:01:26;;;;;;;11.90;8.90;;;9.10;99.90;;;;;;493980;241;28348;-74
2024/02/17 10:03:24;;;;;;;12.87;10.23;;;9.20;99.90;;;;;;493573;241;28515;-73
2024/02/17 10:05:27;;;;;;;16.13;10.10;;;9.30;99.90;;;;;;493875;241;27817;-73
2024/02/17 10:07:26;;;;;;;12.10;9.90;;;9.30;99.90;;;;;;493718;241;27973;-74
2024/02/17 10:09:27;;;;;;;14.10;9.33;;;9.40;99.90;;;;;;493976;241;27987;-74
2024/02/17 10:11:28;;;;;;;13.07;9.30;;;9.60;99.90;;;;;;493981;241;27950;-73
2024/02/17 10:13:29;;;;;;;14.50;9.80;;;9.70;99.90;;;;;;493909;241;27960;-74
2024/02/17 10:15:32;;;;;;;11.07;9.53;;;9.80;99.90;;;;;;493955;241;27810;-73
2024/02/17 10:17:32;;;;;;;12.80;9.60;;;9.80;99.90;;;;;;493884;241;28008;-74
2024/02/17 10:19:33;;;;;;;14.87;10.90;;;9.70;99.90;;;;;;493989;241;27981;-74
2024/02/17 10:21:34;;;;;;;18.50;10.93;;;9.70;99.90;;;;;;493945;241;28356;-73
2024/02/17 10:23:36;;;;;;;15.23;11.33;;;9.70;99.90;;;;;;493904;241;28523;-74
2024/02/17 10:25:38;;;;;;;16.73;10.13;;;9.80;99.90;;;;;;493799;241;28734;-74
2024/02/17 10:27:39;;;;;;;11.90;10.10;;;9.90;99.90;;;;;;493711;241;27980;-73
2024/02/17 10:29:39;;;;;;;15.80;9.37;;;9.80;99.90;;;;;;493945;241;28055;-73
2024/02/17 10:31:41;;;;;;;12.20;9.43;;;9.80;99.90;;;;;;493921;241;27962;-74
2024/02/17 10:33:42;;;;;;;12.00;8.40;;;10.00;99.90;;;;;;493951;241;27979;-73
2024/02/17 10:35:44;;;;;;;15.17;10.33;;;10.10;99.90;;;;;;493986;241;28131;-75
2024/02/17 10:37:44;;;;;;;13.07;9.80;;;10.30;99.90;;;;;;493891;241;28292;-73
2024/02/17 10:39:46;;;;;;;15.07;10.07;;;10.40;99.90;;;;;;493956;241;28655;-74